createdAt,value
2017-02-08T00:00:46.300Z,-0.8
2017-02-08T00:01:52.300Z,-0.7
2017-02-08T00:02:59.015Z,-0.6
2017-02-08T00:04:07.218Z,-0.7
2017-02-08T00:05:18.297Z,-0.7
2017-02-08T00:07:41.016Z,-0.6
2017-02-08T00:08:47.046Z,-0.5
2017-02-08T00:09:53.072Z,-0.5
2017-02-08T00:10:59.071Z,-0.5
2017-02-08T00:12:03.311Z,-0.5
2017-02-08T00:13:09.310Z,-0.6
2017-02-08T00:14:15.313Z,-0.6
2017-02-08T00:15:21.311Z,-0.6
2017-02-08T00:16:27.311Z,-0.6
2017-02-08T00:17:33.308Z,-0.6
2017-02-08T00:18:39.111Z,-0.6
2017-02-08T00:19:56.883Z,-0.7
2017-02-08T00:21:12.864Z,-0.7
2017-02-08T00:22:27.554Z,-0.7
2017-02-08T00:23:41.217Z,-0.7
2017-02-08T00:24:55.492Z,-0.7
2017-02-08T00:26:08.653Z,-0.6
2017-02-08T00:27:28.266Z,-0.6
2017-02-08T00:28:50.013Z,-0.6
2017-02-08T00:30:03.467Z,-0.5
2017-02-08T00:31:18.436Z,-0.6
2017-02-08T00:33:51.895Z,-0.6
2017-02-08T00:35:14.216Z,-0.6
2017-02-08T00:36:26.314Z,-0.6
2017-02-08T00:37:44.646Z,-0.6
2017-02-08T00:39:03.135Z,-0.6
2017-02-08T00:40:16.001Z,-0.6
2017-02-08T00:41:20.897Z,-0.7
2017-02-08T00:42:26.936Z,-0.7
2017-02-08T00:43:32.932Z,-0.7
2017-02-08T00:44:38.938Z,-0.7
2017-02-08T00:45:44.929Z,-0.6
2017-02-08T00:46:49.841Z,-0.6
2017-02-08T00:47:55.838Z,-0.6
2017-02-08T00:49:01.839Z,-0.6
2017-02-08T00:50:07.838Z,-0.7
2017-02-08T00:51:13.850Z,-0.7
2017-02-08T00:52:19.849Z,-0.7
2017-02-08T00:53:25.885Z,-0.7
2017-02-08T00:54:31.912Z,-0.7
2017-02-08T00:55:37.234Z,-0.7
2017-02-08T00:56:43.220Z,-0.7
2017-02-08T00:57:49.211Z,-0.7
2017-02-08T00:58:55.218Z,-0.7
2017-02-08T01:00:00.557Z,-0.7
2017-02-08T01:01:06.559Z,-0.6
2017-02-08T01:02:12.554Z,-0.7
2017-02-08T01:03:18.566Z,-0.6
2017-02-08T01:04:24.574Z,-0.8
2017-02-08T01:05:29.912Z,-0.8
2017-02-08T01:06:35.929Z,-0.8
2017-02-08T01:07:41.920Z,-0.7
2017-02-08T01:08:47.255Z,-0.8
2017-02-08T01:09:53.268Z,-0.7
2017-02-08T01:10:58.158Z,-0.7
2017-02-08T01:12:03.063Z,-0.7
2017-02-08T01:13:09.067Z,-0.7
2017-02-08T01:14:14.403Z,-0.7
2017-02-08T01:15:20.408Z,-0.7
2017-02-08T01:16:25.310Z,-0.8
2017-02-08T01:17:30.209Z,-0.8
2017-02-08T01:18:36.211Z,-0.8
2017-02-08T01:19:41.115Z,-0.8
2017-02-08T01:20:47.119Z,-0.7
2017-02-08T01:21:53.118Z,-0.7
2017-02-08T01:22:59.114Z,-0.7
2017-02-08T01:24:05.154Z,-0.8
2017-02-08T01:25:11.124Z,-0.8
2017-02-08T01:26:17.116Z,-0.9
2017-02-08T01:27:23.119Z,-0.8
2017-02-08T01:28:29.139Z,-0.8
2017-02-08T01:29:35.126Z,-0.7
2017-02-08T01:30:41.122Z,-0.7
2017-02-08T01:31:47.125Z,-0.8
2017-02-08T01:32:53.126Z,-0.9
2017-02-08T01:33:59.126Z,-0.8
2017-02-08T01:35:04.461Z,-0.9
2017-02-08T01:36:10.462Z,-0.9
2017-02-08T01:37:15.794Z,-0.8
2017-02-08T01:38:21.800Z,-0.8
2017-02-08T01:39:27.788Z,-0.8
2017-02-08T01:40:33.791Z,-0.8
2017-02-08T01:41:39.793Z,-0.8
2017-02-08T01:42:45.793Z,-0.9
2017-02-08T01:43:51.154Z,-0.8
2017-02-08T01:44:56.494Z,-0.9
2017-02-08T01:46:00.756Z,-0.8
2017-02-08T01:47:06.736Z,-0.8
2017-02-08T01:48:12.754Z,-0.8
2017-02-08T01:49:18.736Z,-0.8
2017-02-08T01:50:24.739Z,-0.8
2017-02-08T01:51:30.735Z,-0.8
2017-02-08T01:52:36.770Z,-0.8
2017-02-08T01:53:42.775Z,-0.8
2017-02-08T01:54:48.115Z,-0.8
2017-02-08T01:55:54.112Z,-0.9
2017-02-08T01:57:00.105Z,-0.9
2017-02-08T01:58:05.464Z,-1
2017-02-08T01:59:11.465Z,-0.9
2017-02-08T02:00:16.804Z,-0.9
2017-02-08T02:01:22.798Z,-0.9
2017-02-08T02:02:28.793Z,-0.9
2017-02-08T02:03:34.793Z,-0.9
2017-02-08T02:04:39.694Z,-1
2017-02-08T02:05:44.601Z,-0.9
2017-02-08T02:06:50.597Z,-0.9
2017-02-08T02:07:55.493Z,-0.9
2017-02-08T02:09:01.493Z,-0.9
2017-02-08T02:10:07.494Z,-0.8
2017-02-08T02:11:13.505Z,-0.8
2017-02-08T02:12:19.507Z,-0.9
2017-02-08T02:13:25.502Z,-0.9
2017-02-08T02:14:31.508Z,-0.9
2017-02-08T02:15:36.837Z,-0.9
2017-02-08T02:16:42.832Z,-1
2017-02-08T02:17:48.829Z,-1
2017-02-08T02:18:54.177Z,-1
2017-02-08T02:20:00.169Z,-1
2017-02-08T02:21:06.171Z,-1
2017-02-08T02:22:12.174Z,-1
2017-02-08T02:23:18.178Z,-1
2017-02-08T02:24:24.182Z,-0.9
2017-02-08T02:25:30.185Z,-0.9
2017-02-08T02:26:36.185Z,-0.9
2017-02-08T02:27:42.190Z,-1
2017-02-08T02:28:48.189Z,-1
2017-02-08T02:29:54.191Z,-0.9
2017-02-08T02:31:00.196Z,-0.9
2017-02-08T02:32:06.193Z,-0.9
2017-02-08T02:33:12.192Z,-0.9
2017-02-08T02:34:17.520Z,-0.9
2017-02-08T02:35:23.526Z,-0.9
2017-02-08T02:36:28.857Z,-0.9
2017-02-08T02:37:33.758Z,-0.9
2017-02-08T02:38:39.765Z,-0.9
2017-02-08T02:39:45.767Z,-0.9
2017-02-08T02:40:51.766Z,-0.9
2017-02-08T02:41:56.001Z,-0.9
2017-02-08T02:43:02.001Z,-0.9
2017-02-08T02:44:07.993Z,-1
2017-02-08T02:45:13.993Z,-1
2017-02-08T02:46:19.997Z,-1
2017-02-08T02:47:25.998Z,-1
2017-02-08T02:48:32.192Z,-1
2017-02-08T02:49:38.194Z,-0.9
2017-02-08T02:50:44.195Z,-1
2017-02-08T02:51:49.100Z,-1
2017-02-08T02:52:55.102Z,-1
2017-02-08T02:54:01.099Z,-0.9
2017-02-08T02:55:07.100Z,-1
2017-02-08T02:56:12.445Z,-1
2017-02-08T02:57:18.453Z,-0.9
2017-02-08T02:58:24.450Z,-0.9
2017-02-08T02:59:30.452Z,-0.9
2017-02-08T03:00:35.796Z,-1
2017-02-08T03:01:41.793Z,-1
2017-02-08T03:02:47.793Z,-1
2017-02-08T03:03:53.790Z,-1
2017-02-08T03:04:59.791Z,-1
2017-02-08T03:06:05.790Z,-1
2017-02-08T03:07:11.784Z,-1
2017-02-08T03:08:16.021Z,-1
2017-02-08T03:09:22.015Z,-1
2017-02-08T03:10:28.011Z,-1
2017-02-08T03:11:33.350Z,-1
2017-02-08T03:12:38.692Z,-1
2017-02-08T03:13:44.695Z,-1.1
2017-02-08T03:14:50.023Z,-1
2017-02-08T03:15:56.025Z,-1
2017-02-08T03:17:02.040Z,-1
2017-02-08T03:18:06.281Z,-1
2017-02-08T03:19:12.280Z,-1
2017-02-08T03:20:18.308Z,-1
2017-02-08T03:21:24.283Z,-1.1
2017-02-08T03:22:29.624Z,-1
2017-02-08T03:23:34.962Z,-1
2017-02-08T03:24:40.297Z,-1
2017-02-08T03:25:46.298Z,-1
2017-02-08T03:26:52.299Z,-1.1
2017-02-08T03:27:57.638Z,-1.1
2017-02-08T03:29:03.634Z,-1.1
2017-02-08T03:30:09.629Z,-1.1
2017-02-08T03:31:15.633Z,-1.1
2017-02-08T03:32:21.635Z,-1.2
2017-02-08T03:33:27.637Z,-1.2
2017-02-08T03:34:32.972Z,-1.1
2017-02-08T03:35:38.976Z,-1.1
2017-02-08T03:36:44.317Z,-1.1
2017-02-08T03:37:49.649Z,-1.1
2017-02-08T03:38:55.644Z,-1.1
2017-02-08T03:40:01.651Z,-1.1
2017-02-08T03:41:06.991Z,-1.1
2017-02-08T03:42:12.333Z,-1.1
2017-02-08T03:43:18.326Z,-1.2
2017-02-08T03:44:24.320Z,-1.1
2017-02-08T03:45:30.321Z,-1.1
2017-02-08T03:46:36.317Z,-1
2017-02-08T03:47:42.315Z,-1
2017-02-08T03:48:47.658Z,-1.1
2017-02-08T03:49:53.660Z,-1.2
2017-02-08T03:50:59.668Z,-1.1
2017-02-08T03:52:05.666Z,-1.1
2017-02-08T03:53:11.668Z,-1
2017-02-08T03:54:17.669Z,-1
2017-02-08T03:55:23.668Z,-1.1
2017-02-08T03:56:29.661Z,-1.2
2017-02-08T03:57:35.665Z,-1.1
2017-02-08T03:58:41.005Z,-1.1
2017-02-08T03:59:46.998Z,-1.1
2017-02-08T04:00:53.002Z,-1.1
2017-02-08T04:01:57.903Z,-1.1
2017-02-08T04:03:03.905Z,-1.1
2017-02-08T04:04:09.902Z,-1.1
2017-02-08T04:05:14.801Z,-1
2017-02-08T04:06:20.144Z,-1.1
2017-02-08T04:07:26.145Z,-1.1
2017-02-08T04:08:32.142Z,-1.1
2017-02-08T04:09:38.143Z,-1.1
2017-02-08T04:10:44.139Z,-1.2
2017-02-08T04:11:50.136Z,-1.2
2017-02-08T04:12:56.131Z,-1.1
2017-02-08T04:14:02.133Z,-1.1
2017-02-08T04:15:06.814Z,-1.2
2017-02-08T04:16:12.808Z,-1.2
2017-02-08T04:17:18.810Z,-1.1
2017-02-08T04:18:24.810Z,-1.1
2017-02-08T04:19:30.815Z,-1.1
2017-02-08T04:20:36.807Z,-1.1
2017-02-08T04:21:42.811Z,-1.1
2017-02-08T04:22:48.816Z,-1.1
2017-02-08T04:23:54.808Z,-1.1
2017-02-08T04:25:00.803Z,-1.1
2017-02-08T04:26:06.804Z,-1.1
2017-02-08T04:27:11.707Z,-1.1
2017-02-08T04:28:17.713Z,-1.1
2017-02-08T04:29:23.714Z,-1.2
2017-02-08T04:30:29.710Z,-1.2
2017-02-08T04:31:35.707Z,-1.2
2017-02-08T04:32:41.702Z,-1.1
2017-02-08T04:33:47.704Z,-1.1
2017-02-08T04:34:53.706Z,-1.1
2017-02-08T04:35:59.704Z,-1.1
2017-02-08T04:37:05.706Z,-1.1
2017-02-08T04:38:11.702Z,-1.1
2017-02-08T04:39:17.700Z,-1.1
2017-02-08T04:40:23.703Z,-1.1
2017-02-08T04:41:29.040Z,-1.2
2017-02-08T04:42:35.035Z,-1.1
2017-02-08T04:43:41.067Z,-1.1
2017-02-08T04:44:47.038Z,-1.1
2017-02-08T04:45:53.035Z,-1.1
2017-02-08T04:46:59.037Z,-1.1
2017-02-08T04:48:05.040Z,-1.1
2017-02-08T04:49:11.046Z,-1.1
2017-02-08T04:50:17.042Z,-1.2
2017-02-08T04:51:23.044Z,-1.2
2017-02-08T04:52:29.042Z,-1.1
2017-02-08T04:53:35.043Z,-1.2
2017-02-08T04:54:41.042Z,-1.1
2017-02-08T04:55:47.044Z,-1.1
2017-02-08T04:56:53.042Z,-1.2
2017-02-08T04:57:59.050Z,-1.2
2017-02-08T04:59:05.036Z,-1.2
2017-02-08T05:00:11.036Z,-1.3
2017-02-08T05:01:17.041Z,-1.2
2017-02-08T05:02:23.039Z,-1.2
2017-02-08T05:03:27.279Z,-1.2
2017-02-08T05:04:31.517Z,-1.1
2017-02-08T05:05:37.512Z,-1.2
2017-02-08T05:06:43.510Z,-1.2
2017-02-08T05:07:49.513Z,-1.3
2017-02-08T05:08:54.417Z,-1.2
2017-02-08T05:10:00.415Z,-1.2
2017-02-08T05:11:06.422Z,-1.1
2017-02-08T05:12:12.425Z,-1.1
2017-02-08T05:13:18.425Z,-1.1
2017-02-08T05:14:23.324Z,-1.1
2017-02-08T05:15:29.321Z,-1.2
2017-02-08T05:16:34.218Z,-1.3
2017-02-08T05:17:39.551Z,-1.3
2017-02-08T05:18:44.458Z,-1.3
2017-02-08T05:19:49.789Z,-1.2
2017-02-08T05:20:55.789Z,-1.2
2017-02-08T05:22:01.791Z,-1.2
2017-02-08T05:23:07.785Z,-1.2
2017-02-08T05:24:13.785Z,-1.2
2017-02-08T05:25:19.126Z,-1.2
2017-02-08T05:26:25.130Z,-1.2
2017-02-08T05:27:31.122Z,-1.1
2017-02-08T05:28:37.125Z,-1.2
2017-02-08T05:29:43.129Z,-1.1
2017-02-08T05:30:49.133Z,-1.1
2017-02-08T05:31:55.127Z,-1.2
2017-02-08T05:33:01.130Z,-1.2
2017-02-08T05:34:06.466Z,-1.2
2017-02-08T05:35:12.463Z,-1.2
2017-02-08T05:36:18.456Z,-1.2
2017-02-08T05:37:24.466Z,-1.2
2017-02-08T05:38:28.701Z,-1.2
2017-02-08T05:39:34.696Z,-1.2
2017-02-08T05:40:40.697Z,-1.2
2017-02-08T05:41:46.699Z,-1.2
2017-02-08T05:42:52.700Z,-1.2
2017-02-08T05:43:58.701Z,-1.2
2017-02-08T05:45:04.702Z,-1.2
2017-02-08T05:46:10.702Z,-1.2
2017-02-08T05:47:16.706Z,-1.2
2017-02-08T05:48:22.037Z,-1.3
2017-02-08T05:49:27.380Z,-1.4
2017-02-08T05:50:33.381Z,-1.3
2017-02-08T05:51:39.371Z,-1.2
2017-02-08T05:52:45.368Z,-1.2
2017-02-08T05:53:50.708Z,-1.2
2017-02-08T05:54:56.711Z,-1.2
2017-02-08T05:56:02.705Z,-1.3
2017-02-08T05:57:08.714Z,-1.3
2017-02-08T05:58:14.719Z,-1.4
2017-02-08T05:59:20.723Z,-1.3
2017-02-08T06:00:26.715Z,-1.3
2017-02-08T06:01:32.052Z,-1.3
2017-02-08T06:02:38.057Z,-1.3
2017-02-08T06:03:44.057Z,-1.4
2017-02-08T06:04:50.058Z,-1.4
2017-02-08T06:05:56.058Z,-1.3
2017-02-08T06:07:02.060Z,-1.3
2017-02-08T06:08:06.958Z,-1.3
2017-02-08T06:09:12.954Z,-1.3
2017-02-08T06:10:18.953Z,-1.3
2017-02-08T06:11:24.959Z,-1.3
2017-02-08T06:12:30.963Z,-1.3
2017-02-08T06:13:36.964Z,-1.3
2017-02-08T06:14:42.303Z,-1.3
2017-02-08T06:15:48.304Z,-1.3
2017-02-08T06:16:54.305Z,-1.2
2017-02-08T06:18:00.305Z,-1.2
2017-02-08T06:19:05.206Z,-1.2
2017-02-08T06:20:10.106Z,-1.2
2017-02-08T06:21:16.105Z,-1.2
2017-02-08T06:22:22.102Z,-1.2
2017-02-08T06:23:28.105Z,-1.2
2017-02-08T06:24:34.103Z,-1.2
2017-02-08T06:25:40.112Z,-1.2
2017-02-08T06:26:45.009Z,-1.3
2017-02-08T06:27:51.007Z,-1.3
2017-02-08T06:28:57.000Z,-1.3
2017-02-08T06:30:03.008Z,-1.3
2017-02-08T06:31:09.006Z,-1.4
2017-02-08T06:32:15.003Z,-1.3
2017-02-08T06:33:20.345Z,-1.3
2017-02-08T06:34:26.352Z,-1.3
2017-02-08T06:35:32.348Z,-1.3
2017-02-08T06:36:38.345Z,-1.3
2017-02-08T06:37:43.254Z,-1.3
2017-02-08T06:38:49.252Z,-1.3
2017-02-08T06:39:54.154Z,-1.3
2017-02-08T06:41:00.150Z,-1.2
2017-02-08T06:42:06.153Z,-1.2
2017-02-08T06:43:12.151Z,-1.2
2017-02-08T06:44:18.156Z,-1.2
2017-02-08T06:45:23.521Z,-1.2
2017-02-08T06:46:29.503Z,-1.3
2017-02-08T06:47:35.498Z,-1.3
2017-02-08T06:48:41.496Z,-1.3
2017-02-08T06:49:46.830Z,-1.3
2017-02-08T06:50:52.837Z,-1.3
2017-02-08T06:51:58.840Z,-1.4
2017-02-08T06:53:04.838Z,-1.4
2017-02-08T06:54:10.836Z,-1.4
2017-02-08T06:55:16.835Z,-1.4
2017-02-08T06:56:22.836Z,-1.4
2017-02-08T06:57:28.830Z,-1.4
2017-02-08T06:58:34.828Z,-1.3
2017-02-08T06:59:39.730Z,-1.4
2017-02-08T07:00:45.737Z,-1.3
2017-02-08T07:01:51.079Z,-1.3
2017-02-08T07:02:57.079Z,-1.4
2017-02-08T07:04:03.081Z,-1.4
2017-02-08T07:05:09.079Z,-1.3
2017-02-08T07:06:15.078Z,-1.3
2017-02-08T07:07:21.078Z,-1.3
2017-02-08T07:08:27.085Z,-1.4
2017-02-08T07:09:32.422Z,-1.4
2017-02-08T07:10:38.426Z,-1.4
2017-02-08T07:11:44.436Z,-1.4
2017-02-08T07:12:50.433Z,-1.3
2017-02-08T07:13:56.428Z,-1.3
2017-02-08T07:15:02.427Z,-1.4
2017-02-08T07:16:08.430Z,-1.4
2017-02-08T07:17:14.426Z,-1.4
2017-02-08T07:18:19.794Z,-1.4
2017-02-08T07:19:25.764Z,-1.3
2017-02-08T07:20:31.110Z,-1.3
2017-02-08T07:21:36.444Z,-1.4
2017-02-08T07:22:42.444Z,-1.3
2017-02-08T07:23:48.439Z,-1.4
2017-02-08T07:24:54.436Z,-1.4
2017-02-08T07:26:00.442Z,-1.2
2017-02-08T07:27:05.340Z,-1.3
2017-02-08T07:28:10.242Z,-1.3
2017-02-08T07:29:16.246Z,-1.3
2017-02-08T07:30:20.485Z,-1.3
2017-02-08T07:31:26.490Z,-1.2
2017-02-08T07:32:32.492Z,-1.2
2017-02-08T07:33:37.391Z,-1.3
2017-02-08T07:34:43.389Z,-1.3
2017-02-08T07:35:49.386Z,-1.4
2017-02-08T07:36:54.728Z,-1.5
2017-02-08T07:38:00.734Z,-1.4
2017-02-08T07:39:06.727Z,-1.4
2017-02-08T07:40:12.725Z,-1.3
2017-02-08T07:41:18.736Z,-1.3
2017-02-08T07:42:24.724Z,-1.3
2017-02-08T07:43:30.722Z,-1.3
2017-02-08T07:44:36.724Z,-1.3
2017-02-08T07:45:42.069Z,-1.4
2017-02-08T07:46:48.063Z,-1.4
2017-02-08T07:47:54.069Z,-1.2
2017-02-08T07:49:00.065Z,-1.3
2017-02-08T07:50:06.074Z,-1.3
2017-02-08T07:51:12.072Z,-1.3
2017-02-08T07:52:17.410Z,-1.4
2017-02-08T07:53:23.410Z,-1.4
2017-02-08T07:54:29.403Z,-1.2
2017-02-08T07:55:35.399Z,-1.3
2017-02-08T07:56:41.400Z,-1.4
2017-02-08T07:57:47.406Z,-1.3
2017-02-08T07:58:52.082Z,-1.3
2017-02-08T07:59:58.076Z,-1.2
2017-02-08T08:01:02.982Z,-1.2
2017-02-08T08:02:08.987Z,-1.3
2017-02-08T08:03:14.981Z,-1.2
2017-02-08T08:04:20.977Z,-1.2
2017-02-08T08:05:26.987Z,-1.2
2017-02-08T08:06:32.984Z,-1.2
2017-02-08T08:07:37.220Z,-1.2
2017-02-08T08:08:43.214Z,-1.2
2017-02-08T08:09:49.224Z,-1.2
2017-02-08T08:10:55.219Z,-1.2
2017-02-08T08:12:01.220Z,-1.3
2017-02-08T08:13:07.219Z,-1.3
2017-02-08T08:14:13.226Z,-1.3
2017-02-08T08:15:18.127Z,-1.2
2017-02-08T08:16:24.121Z,-1.2
2017-02-08T08:17:30.123Z,-1.2
2017-02-08T08:18:35.464Z,-1.2
2017-02-08T08:19:41.460Z,-1.1
2017-02-08T08:20:47.461Z,-1.1
2017-02-08T08:21:53.457Z,-1.1
2017-02-08T08:22:59.458Z,-1.1
2017-02-08T08:24:05.456Z,-1.1
2017-02-08T08:25:11.455Z,-1.2
2017-02-08T08:26:17.452Z,-1.2
2017-02-08T08:27:23.452Z,-1.1
2017-02-08T08:28:28.353Z,-1.1
2017-02-08T08:29:34.350Z,-1.1
2017-02-08T08:30:39.692Z,-1.1
2017-02-08T08:31:45.692Z,-1.1
2017-02-08T08:32:50.367Z,-1.2
2017-02-08T08:33:56.367Z,-1.4
2017-02-08T08:35:01.709Z,-1.3
2017-02-08T08:36:07.701Z,-1.2
2017-02-08T08:37:12.601Z,-1.2
2017-02-08T08:38:17.938Z,-1.2
2017-02-08T08:39:23.933Z,-1.2
2017-02-08T08:40:29.934Z,-1.2
2017-02-08T08:41:34.837Z,-1.2
2017-02-08T08:42:39.735Z,-1.2
2017-02-08T08:43:45.732Z,-1.2
2017-02-08T08:44:51.730Z,-1.2
2017-02-08T08:45:57.730Z,-1.1
2017-02-08T08:47:03.733Z,-1.2
2017-02-08T08:48:09.740Z,-1.2
2017-02-08T08:49:15.737Z,-1.2
2017-02-08T08:50:21.738Z,-1.2
2017-02-08T08:51:27.738Z,-1.2
2017-02-08T08:52:33.735Z,-1.2
2017-02-08T08:53:39.732Z,-1.2
2017-02-08T08:54:45.731Z,-1.1
2017-02-08T08:55:51.071Z,-1.2
2017-02-08T08:56:57.071Z,-1.2
2017-02-08T08:58:03.074Z,-1
2017-02-08T08:59:09.074Z,-1
2017-02-08T09:00:15.076Z,-0.9
2017-02-08T09:01:21.081Z,-0.8
2017-02-08T09:02:26.417Z,-0.7
2017-02-08T09:03:31.424Z,-0.8
2017-02-08T09:04:37.635Z,-0.9
2017-02-08T09:05:44.414Z,-1
2017-02-08T09:06:49.039Z,-0.9
2017-02-08T09:07:54.634Z,-0.8
2017-02-08T09:08:59.880Z,-0.9
2017-02-08T09:10:06.079Z,-1.1
2017-02-08T09:11:10.421Z,-1.1
2017-02-08T09:12:15.267Z,-1
2017-02-08T09:13:21.218Z,-0.8
2017-02-08T09:14:27.371Z,-0.8
2017-02-08T09:15:32.639Z,-0.9
2017-02-08T09:16:40.610Z,-1
2017-02-08T09:17:44.838Z,-1
2017-02-08T09:18:50.866Z,-1.1
2017-02-08T09:19:57.228Z,-1
2017-02-08T09:21:02.303Z,-1.1
2017-02-08T09:22:06.485Z,-1.1
2017-02-08T09:23:10.847Z,-1
2017-02-08T09:24:17.302Z,-1
2017-02-08T09:25:21.933Z,-1
2017-02-08T09:26:28.639Z,-0.9
2017-02-08T09:27:34.585Z,-0.9
2017-02-08T09:28:39.188Z,-0.9
2017-02-08T09:29:45.189Z,-0.9
2017-02-08T09:30:50.572Z,-0.9
2017-02-08T09:31:56.579Z,-0.9
2017-02-08T09:33:02.587Z,-1.1
2017-02-08T09:34:07.245Z,-1
2017-02-08T09:35:13.244Z,-0.9
2017-02-08T09:36:19.247Z,-1
2017-02-08T09:37:24.591Z,-1.1
2017-02-08T09:38:30.593Z,-1.1
2017-02-08T09:39:36.590Z,-1
2017-02-08T09:40:42.597Z,-0.9
2017-02-08T09:41:47.944Z,-1
2017-02-08T09:42:53.935Z,-0.9
2017-02-08T09:43:58.840Z,-0.9
2017-02-08T09:45:04.844Z,-0.8
2017-02-08T09:46:10.842Z,-1
2017-02-08T09:47:17.088Z,-1.1
2017-02-08T09:48:22.873Z,-1
2017-02-08T09:49:28.878Z,-0.9
2017-02-08T09:50:34.475Z,-0.9
2017-02-08T09:51:40.769Z,-0.9
2017-02-08T09:52:46.102Z,-0.9
2017-02-08T09:53:52.102Z,-0.9
2017-02-08T09:54:58.164Z,-0.9
2017-02-08T09:56:03.065Z,-0.9
2017-02-08T09:57:09.075Z,-1
2017-02-08T09:58:15.071Z,-1
2017-02-08T09:59:21.073Z,-0.9
2017-02-08T10:00:27.089Z,-1
2017-02-08T10:01:31.985Z,-1
2017-02-08T10:02:37.996Z,-1
2017-02-08T10:03:43.432Z,-1
2017-02-08T10:04:49.432Z,-0.9
2017-02-08T10:05:55.440Z,-0.9
2017-02-08T10:07:01.440Z,-1
2017-02-08T10:08:06.394Z,-0.9
2017-02-08T10:09:11.951Z,-0.9
2017-02-08T10:10:16.203Z,-0.9
2017-02-08T10:11:22.257Z,-0.9
2017-02-08T10:12:28.267Z,-1
2017-02-08T10:13:33.804Z,-0.9
2017-02-08T10:14:39.802Z,-0.9
2017-02-08T10:15:45.801Z,-0.8
2017-02-08T10:16:51.799Z,-0.8
2017-02-08T10:17:57.884Z,-0.5
2017-02-08T10:19:03.880Z,-0.7
2017-02-08T10:20:09.883Z,-0.7
2017-02-08T10:21:15.881Z,-0.7
2017-02-08T10:22:21.924Z,-0.7
2017-02-08T10:23:27.897Z,-0.7
2017-02-08T10:24:33.950Z,-0.7
2017-02-08T10:25:39.943Z,-0.7
2017-02-08T10:26:46.052Z,-0.6
2017-02-08T10:27:52.426Z,-0.7
2017-02-08T10:28:57.059Z,-0.7
2017-02-08T10:30:03.144Z,-0.7
2017-02-08T10:31:09.412Z,-0.8
2017-02-08T10:32:15.518Z,-0.8
2017-02-08T10:33:20.423Z,-0.7
2017-02-08T10:34:26.531Z,-0.6
2017-02-08T10:35:32.196Z,-0.6
2017-02-08T10:36:38.154Z,-0.5
2017-02-08T10:37:44.272Z,-0.5
2017-02-08T10:38:50.379Z,-0.6
2017-02-08T10:39:56.504Z,-0.7
2017-02-08T10:41:02.563Z,-0.6
2017-02-08T10:42:06.762Z,-0.6
2017-02-08T10:43:12.774Z,-0.5
2017-02-08T10:44:18.126Z,-0.5
2017-02-08T10:45:23.996Z,-0.5
2017-02-08T10:46:29.993Z,-0.4
2017-02-08T10:47:35.992Z,-0.3
2017-02-08T10:48:42.131Z,-0.3
2017-02-08T10:49:48.944Z,-0.4
2017-02-08T10:50:55.028Z,-0.3
2017-02-08T10:52:00.730Z,-0.3
2017-02-08T10:53:06.838Z,-0.2
2017-02-08T10:54:13.115Z,-0.2
2017-02-08T10:55:18.305Z,-0.3
2017-02-08T10:56:24.413Z,-0.2
2017-02-08T10:57:29.420Z,-0.3
2017-02-08T10:58:33.752Z,-0.3
2017-02-08T10:59:39.866Z,-0.3
2017-02-08T11:00:45.957Z,-0.3
2017-02-08T11:01:51.935Z,-0.3
2017-02-08T11:02:57.358Z,-0.4
2017-02-08T11:04:03.424Z,-0.4
2017-02-08T11:05:08.266Z,-0.5
2017-02-08T11:06:14.647Z,-0.5
2017-02-08T11:07:20.354Z,-0.4
2017-02-08T11:08:26.405Z,-0.4
2017-02-08T11:09:31.818Z,-0.4
2017-02-08T11:10:37.830Z,-0.4
2017-02-08T11:11:43.836Z,-0.3
2017-02-08T11:12:49.174Z,-0.4
2017-02-08T11:13:54.517Z,-0.5
2017-02-08T11:15:00.518Z,-0.4
2017-02-08T11:16:05.857Z,-0.3
2017-02-08T11:17:11.862Z,-0.2
2017-02-08T11:18:17.902Z,-0.2
2017-02-08T11:19:23.968Z,-0.3
2017-02-08T11:20:30.053Z,-0.3
2017-02-08T11:21:36.111Z,-0.3
2017-02-08T11:22:42.200Z,-0.5
2017-02-08T11:23:48.341Z,-0.4
2017-02-08T11:24:54.356Z,-0.4
2017-02-08T11:26:00.399Z,-0.4
2017-02-08T11:27:06.392Z,-0.5
2017-02-08T11:28:11.307Z,-0.4
2017-02-08T11:29:17.307Z,-0.3
2017-02-08T11:30:23.306Z,-0.4
2017-02-08T11:31:29.329Z,-0.5
2017-02-08T11:32:35.353Z,-0.5
2017-02-08T11:33:40.847Z,-0.4
2017-02-08T11:34:46.860Z,-0.3
2017-02-08T11:35:52.861Z,-0.3
2017-02-08T11:36:58.865Z,-0.4
2017-02-08T11:38:04.967Z,-0.2
2017-02-08T11:39:11.047Z,-0.1
2017-02-08T11:40:16.408Z,-0.1
2017-02-08T11:41:22.513Z,-0.1
2017-02-08T11:42:28.512Z,-0.1
2017-02-08T11:43:34.626Z,-0.1
2017-02-08T11:44:40.976Z,-0.2
2017-02-08T11:45:46.795Z,-0.2
2017-02-08T11:46:52.853Z,-0.2
2017-02-08T11:47:58.287Z,-0.3
2017-02-08T11:49:04.359Z,-0.1
2017-02-08T11:50:10.662Z,0
2017-02-08T11:51:15.390Z,0
2017-02-08T11:52:20.321Z,0
2017-02-08T11:53:26.333Z,0
2017-02-08T11:54:32.412Z,0
2017-02-08T11:55:38.413Z,0
2017-02-08T11:56:44.412Z,0.1
2017-02-08T11:57:49.746Z,-0.2
2017-02-08T11:58:55.747Z,0
2017-02-08T12:00:00.644Z,0
2017-02-08T12:01:06.641Z,0.1
2017-02-08T12:02:11.541Z,0.2
2017-02-08T12:03:17.552Z,0.1
2017-02-08T12:04:22.608Z,-0.2
2017-02-08T12:05:28.699Z,-0.2
2017-02-08T12:06:34.664Z,-0.1
2017-02-08T12:07:40.665Z,0
2017-02-08T12:08:46.705Z,0
2017-02-08T12:09:51.564Z,0.1
2017-02-08T12:10:57.613Z,0.3
2017-02-08T12:12:03.608Z,0.2
2017-02-08T12:13:09.667Z,0.1
2017-02-08T12:14:15.665Z,-0.2
2017-02-08T12:15:21.002Z,0
2017-02-08T12:16:27.008Z,0.1
2017-02-08T12:17:32.356Z,0.2
2017-02-08T12:18:38.588Z,0.3
2017-02-08T12:19:44.596Z,0.4
2017-02-08T12:20:49.918Z,0.5
2017-02-08T12:21:55.971Z,0.5
2017-02-08T12:23:02.011Z,0.6
2017-02-08T12:24:08.018Z,0.7
2017-02-08T12:25:13.350Z,0.4
2017-02-08T12:26:19.358Z,0.2
2017-02-08T12:27:25.363Z,0.3
2017-02-08T12:28:31.362Z,0.5
2017-02-08T12:29:37.364Z,0.5
2017-02-08T12:30:43.348Z,0.5
2017-02-08T12:31:49.492Z,0.6
2017-02-08T12:32:55.504Z,0.6
2017-02-08T12:34:00.391Z,0.5
2017-02-08T12:35:06.441Z,0.4
2017-02-08T12:36:12.658Z,0.4
2017-02-08T12:37:18.001Z,0.3
2017-02-08T12:38:24.004Z,0.3
2017-02-08T12:39:30.003Z,0.5
2017-02-08T12:40:36.016Z,0.6
2017-02-08T12:41:42.021Z,0.7
2017-02-08T12:42:59.940Z,0.6
2017-02-08T12:44:19.483Z,0.7
2017-02-08T12:45:26.455Z,0.6
2017-02-08T12:46:32.473Z,0.6
2017-02-08T12:47:37.807Z,0.6
2017-02-08T12:48:43.808Z,0.4
2017-02-08T12:49:49.906Z,0.4
2017-02-08T12:50:55.924Z,0.3
2017-02-08T12:52:01.920Z,0.3
2017-02-08T12:53:06.823Z,0.2
2017-02-08T12:54:12.863Z,0.1
2017-02-08T12:55:19.296Z,0
2017-02-08T12:56:25.298Z,0
2017-02-08T12:57:30.239Z,-0.1
2017-02-08T12:58:35.556Z,-0.1
2017-02-08T12:59:41.806Z,-0.1
2017-02-08T13:00:47.589Z,-0.1
2017-02-08T13:01:53.600Z,-0.1
2017-02-08T13:02:59.595Z,-0.2
2017-02-08T13:04:05.773Z,-0.1
2017-02-08T13:05:11.595Z,-0.1
2017-02-08T13:06:16.950Z,-0.3
2017-02-08T13:07:23.510Z,-0.4
2017-02-08T13:08:29.451Z,-0.3
2017-02-08T13:09:34.794Z,-0.3
2017-02-08T13:10:39.471Z,-0.3
2017-02-08T13:11:45.469Z,-0.3
2017-02-08T13:12:49.720Z,-0.4
2017-02-08T13:13:55.715Z,-0.4
2017-02-08T13:15:01.937Z,-0.4
2017-02-08T13:16:07.897Z,-0.3
2017-02-08T13:17:13.997Z,-0.3
2017-02-08T13:18:21.181Z,-0.4
2017-02-08T13:19:29.067Z,-0.4
2017-02-08T13:20:33.986Z,-0.3
2017-02-08T13:21:38.898Z,-0.4
2017-02-08T13:22:44.883Z,-0.3
2017-02-08T13:23:50.882Z,-0.2
2017-02-08T13:24:56.884Z,-0.3
2017-02-08T13:26:02.922Z,-0.2
2017-02-08T13:27:08.999Z,-0.3
2017-02-08T13:28:15.073Z,-0.3
2017-02-08T13:30:29.149Z,-0.4
2017-02-08T13:31:35.242Z,-0.5
2017-02-08T13:32:40.168Z,-0.4
2017-02-08T13:33:46.649Z,-0.4
2017-02-08T13:34:53.021Z,-0.5
2017-02-08T13:35:59.354Z,-0.5
2017-02-08T13:37:04.851Z,-0.5
2017-02-08T13:38:13.510Z,-0.5
2017-02-08T13:39:18.919Z,-0.5
2017-02-08T13:40:25.347Z,-0.6
2017-02-08T13:41:30.524Z,-0.5
2017-02-08T13:42:36.797Z,-0.7
2017-02-08T13:43:43.524Z,-0.6
2017-02-08T13:44:49.626Z,-0.8
2017-02-08T13:45:54.839Z,-0.8
2017-02-08T13:47:01.187Z,-0.7
2017-02-08T13:48:07.663Z,-0.6
2017-02-08T13:49:13.626Z,-0.3
2017-02-08T13:50:20.178Z,-0.4
2017-02-08T13:51:26.756Z,-0.4
2017-02-08T13:52:32.033Z,-0.4
2017-02-08T13:53:36.929Z,-0.6
2017-02-08T13:54:41.856Z,-0.6
2017-02-08T13:55:48.822Z,-0.6
2017-02-08T13:56:54.284Z,-0.7
2017-02-08T13:58:00.530Z,-0.6
2017-02-08T13:59:07.692Z,-0.6
2017-02-08T14:00:13.777Z,-0.7
2017-02-08T14:01:20.206Z,-0.7
2017-02-08T14:02:26.878Z,-0.7
2017-02-08T14:03:33.455Z,-0.9
2017-02-08T14:04:39.950Z,-0.9
2017-02-08T14:05:47.133Z,-0.9
2017-02-08T14:06:52.499Z,-0.8
2017-02-08T14:07:59.164Z,-0.8
2017-02-08T14:09:04.344Z,-0.9
2017-02-08T14:10:11.203Z,-0.8
2017-02-08T14:11:18.236Z,-0.8
2017-02-08T14:12:23.510Z,-0.9
2017-02-08T14:13:30.430Z,-1
2017-02-08T14:14:36.571Z,-1.2
2017-02-08T14:15:42.405Z,-1.1
2017-02-08T14:16:48.704Z,-1.1
2017-02-08T14:17:55.001Z,-1
2017-02-08T14:19:01.310Z,-1
2017-02-08T14:20:08.148Z,-1.1
2017-02-08T14:21:14.575Z,-1.1
2017-02-08T14:22:19.755Z,-1.1
2017-02-08T14:23:26.189Z,-1
2017-02-08T14:24:32.685Z,-1
2017-02-08T14:25:39.830Z,-1
2017-02-08T14:26:46.036Z,-0.9
2017-02-08T14:27:51.812Z,-1
2017-02-08T14:28:58.722Z,-1
2017-02-08T14:30:05.066Z,-1.2
2017-02-08T14:31:10.669Z,-1.4
2017-02-08T14:32:16.848Z,-1.4
2017-02-08T14:37:19.123Z,-1.2
2017-02-08T14:42:21.695Z,-1.4
2017-02-08T14:43:28.157Z,-1.4
2017-02-08T14:44:32.274Z,-1.5
2017-02-08T14:45:38.522Z,-1.4
2017-02-08T14:46:45.898Z,-1.5
2017-02-08T14:47:50.621Z,-1.4
2017-02-08T14:48:56.240Z,-1.4
2017-02-08T14:50:02.626Z,-1.3
2017-02-08T14:51:08.814Z,-1.4
2017-02-08T14:52:15.206Z,-1.5
2017-02-08T14:53:21.813Z,-1.6
2017-02-08T14:54:27.079Z,-1.5
2017-02-08T14:55:33.199Z,-1.5
2017-02-08T14:56:38.035Z,-1.5
2017-02-08T14:57:44.486Z,-1.4
2017-02-08T14:58:50.858Z,-1.4
2017-02-08T14:59:55.121Z,-1.3